createdAt,value
2022-08-22T00:00:16.329Z,17.90
2022-08-22T00:03:09.680Z,20.31
2022-08-22T00:03:09.861Z,19.48
2022-08-22T00:03:16.196Z,18.06
2022-08-22T00:05:44.486Z,17.67
2022-08-22T00:08:38.980Z,18.18
2022-08-22T00:11:34.873Z,17.96
2022-08-22T00:14:22.389Z,17.95
2022-08-22T00:17:12.363Z,17.92
2022-08-22T00:19:47.670Z,18.05
2022-08-22T00:22:30.799Z,17.98
2022-08-22T00:25:29.089Z,17.97
2022-08-22T00:28:37.701Z,18.05
2022-08-22T00:31:22.592Z,18.02
2022-08-22T00:33:55.683Z,18.19
2022-08-22T00:36:30.538Z,17.90
2022-08-22T00:39:22.179Z,17.89
2022-08-22T00:42:03.686Z,18.07
2022-08-22T00:45:05.456Z,17.95
2022-08-22T00:47:34.660Z,18.25
2022-08-22T00:50:22.095Z,18.19
2022-08-22T00:53:27.750Z,18.18
2022-08-22T00:56:29.175Z,18.28
2022-08-22T00:59:33.525Z,18.09
2022-08-22T01:02:27.836Z,17.83
2022-08-22T01:05:07.702Z,17.91
2022-08-22T01:07:52.500Z,17.88
2022-08-22T01:10:56.817Z,17.94
2022-08-22T01:13:26.049Z,17.85
2022-08-22T01:16:05.356Z,17.94
2022-08-22T01:18:55.925Z,17.69
2022-08-22T01:21:49.147Z,17.66
2022-08-22T01:24:21.505Z,18.15
2022-08-22T01:27:21.530Z,18.25
2022-08-22T01:30:18.579Z,18.49
2022-08-22T01:33:22.650Z,18.64
2022-08-22T01:35:57.912Z,18.63
2022-08-22T01:38:43.139Z,18.71
2022-08-22T01:41:30.196Z,18.50
2022-08-22T01:44:11.601Z,18.58
2022-08-22T01:47:02.649Z,18.32
2022-08-22T01:49:35.224Z,18.54
2022-08-22T01:52:39.015Z,18.37
2022-08-22T01:55:13.661Z,18.40
2022-08-22T01:57:58.954Z,17.84
2022-08-22T02:00:34.883Z,17.79
2022-08-22T02:03:08.286Z,17.73
2022-08-22T02:05:51.097Z,17.42
2022-08-22T02:08:31.490Z,17.81
2022-08-22T02:11:11.068Z,18.03
2022-08-22T02:14:00.414Z,18.17
2022-08-22T02:16:43.376Z,17.94
2022-08-22T02:19:29.405Z,17.36
2022-08-22T02:22:04.121Z,17.61
2022-08-22T02:24:33.342Z,17.72
2022-08-22T02:27:02.788Z,17.89
2022-08-22T02:29:36.595Z,17.44
2022-08-22T02:32:16.329Z,17.67
2022-08-22T02:34:55.390Z,17.58
2022-08-22T02:38:00.430Z,17.65
2022-08-22T02:41:05.436Z,17.78
2022-08-22T02:43:49.683Z,17.97
2022-08-22T02:46:26.529Z,17.69
2022-08-22T02:49:08.974Z,17.82
2022-08-22T02:52:04.589Z,17.74
2022-08-22T02:54:47.384Z,17.61
2022-08-22T02:57:20.174Z,17.69
2022-08-22T03:00:31.945Z,17.62
2022-08-22T03:03:28.320Z,17.70
2022-08-22T03:06:04.856Z,17.52
2022-08-22T03:08:38.502Z,17.60
2022-08-22T03:11:19.033Z,17.58
2022-08-22T03:14:16.212Z,17.58
2022-08-22T03:17:06.001Z,17.51
2022-08-22T03:20:00.453Z,17.51
2022-08-22T03:22:45.692Z,17.38
2022-08-22T03:25:29.935Z,17.63
2022-08-22T03:28:38.521Z,17.55
2022-08-22T03:31:24.253Z,17.65
2022-08-22T03:34:23.923Z,17.50
2022-08-22T03:37:10.961Z,17.67
2022-08-22T03:39:42.709Z,17.60
2022-08-22T03:42:32.203Z,17.44
2022-08-22T03:45:26.477Z,17.43
2022-08-22T03:48:02.965Z,17.28
2022-08-22T03:50:48.036Z,17.39
2022-08-22T03:53:23.375Z,17.43
2022-08-22T03:56:18.005Z,17.41
2022-08-22T03:58:55.494Z,17.27
2022-08-22T04:01:41.722Z,17.06
2022-08-22T04:04:11.143Z,17.30
2022-08-22T04:06:56.352Z,17.30
2022-08-22T04:09:40.490Z,17.44
2022-08-22T04:12:37.449Z,17.22
2022-08-22T04:15:41.554Z,17.25
2022-08-22T04:18:37.560Z,17.02
2022-08-22T04:21:18.894Z,17.24
2022-08-22T04:23:59.302Z,17.06
2022-08-22T04:27:02.261Z,16.97
2022-08-22T04:29:37.099Z,16.92
2022-08-22T04:32:10.645Z,17.12
2022-08-22T04:34:55.848Z,16.73
2022-08-22T04:37:35.158Z,16.68
2022-08-22T04:40:21.352Z,17.06
2022-08-22T04:42:54.977Z,17.06
2022-08-22T04:45:29.424Z,17.04
2022-08-22T04:48:11.048Z,16.87
2022-08-22T04:51:18.482Z,16.86
2022-08-22T04:53:48.050Z,16.89
2022-08-22T04:56:22.293Z,16.80
2022-08-22T04:58:56.750Z,16.64
2022-08-22T05:01:26.726Z,16.89
2022-08-22T05:04:07.959Z,16.95
2022-08-22T05:06:43.573Z,16.73
2022-08-22T05:09:16.407Z,16.78
2022-08-22T05:11:43.318Z,16.84
2022-08-22T05:14:23.321Z,16.85
2022-08-22T05:16:52.607Z,17.17
2022-08-22T05:19:31.153Z,16.92
2022-08-22T05:21:59.503Z,17.40
2022-08-22T05:24:32.494Z,17.36
2022-08-22T05:27:09.332Z,17.33
2022-08-22T05:29:40.107Z,17.20
2022-08-22T05:32:15.351Z,16.98
2022-08-22T05:34:45.022Z,17.46
2022-08-22T05:37:21.205Z,17.35
2022-08-22T05:39:54.841Z,17.45
2022-08-22T05:42:31.945Z,17.20
2022-08-22T05:45:01.592Z,17.46
2022-08-22T05:47:38.275Z,17.39
2022-08-22T05:50:14.078Z,17.44
2022-08-22T05:53:04.749Z,17.40
2022-08-22T05:55:55.119Z,17.51
2022-08-22T05:58:40.071Z,17.50
2022-08-22T06:01:33.203Z,17.63
2022-08-22T06:04:03.175Z,17.72
2022-08-22T06:06:34.998Z,17.53
2022-08-22T06:09:04.294Z,17.30
2022-08-22T06:11:51.725Z,17.76
2022-08-22T06:14:51.444Z,17.55
2022-08-22T06:17:27.115Z,18.07
2022-08-22T06:19:54.797Z,17.81
2022-08-22T06:22:27.663Z,18.17
2022-08-22T06:25:07.745Z,18.01
2022-08-22T06:27:35.149Z,18.26
2022-08-22T06:30:04.104Z,18.76
2022-08-22T06:32:58.892Z,19.06
2022-08-22T06:35:31.230Z,19.15
2022-08-22T06:38:00.351Z,19.31
2022-08-22T06:40:29.173Z,19.45
2022-08-22T06:42:57.391Z,19.58
2022-08-22T06:45:30.398Z,19.62
2022-08-22T06:48:06.435Z,19.91
2022-08-22T06:50:37.475Z,19.95
2022-08-22T06:53:12.787Z,19.64
2022-08-22T06:55:46.234Z,20.15
2022-08-22T06:58:20.719Z,21.80
2022-08-22T07:01:11.128Z,21.93
2022-08-22T07:03:47.168Z,20.70
2022-08-22T07:06:28.095Z,20.09
2022-08-22T07:08:55.392Z,21.12
2022-08-22T07:11:39.906Z,22.73
2022-08-22T07:14:11.880Z,21.71
2022-08-22T07:16:44.189Z,22.40
2022-08-22T07:19:23.550Z,22.33
2022-08-22T07:21:50.036Z,22.03
2022-08-22T07:24:25.318Z,23.76
2022-08-22T07:27:04.791Z,21.97
2022-08-22T07:30:10.123Z,22.18
2022-08-22T07:33:17.765Z,20.96
2022-08-22T07:35:53.409Z,20.33
2022-08-22T07:38:38.192Z,20.18
2022-08-22T07:41:09.956Z,21.03
2022-08-22T07:43:50.062Z,20.84
2022-08-22T07:46:19.573Z,20.91
2022-08-22T07:49:08.090Z,21.15
2022-08-22T07:51:43.155Z,20.89
2022-08-22T07:54:22.786Z,20.56
2022-08-22T07:56:57.716Z,20.71
2022-08-22T07:59:25.913Z,21.14
2022-08-22T08:01:56.333Z,20.90
2022-08-22T08:04:28.943Z,21.34
2022-08-22T08:06:59.134Z,20.42
2022-08-22T08:09:31.732Z,20.55
2022-08-22T08:12:00.295Z,20.23
2022-08-22T08:14:27.968Z,20.40
2022-08-22T08:17:02.212Z,20.49
2022-08-22T08:19:30.853Z,20.24
2022-08-22T08:21:58.731Z,20.29
2022-08-22T08:24:34.539Z,20.29
2022-08-22T08:27:16.331Z,20.66
2022-08-22T08:29:50.753Z,20.62
2022-08-22T08:32:18.187Z,20.68
2022-08-22T08:34:44.845Z,20.77
2022-08-22T08:37:26.234Z,20.40
2022-08-22T08:39:57.211Z,20.22
2022-08-22T08:42:42.171Z,20.55
2022-08-22T08:45:39.420Z,20.49
2022-08-22T08:48:15.058Z,20.65
2022-08-22T08:51:10.107Z,20.70
2022-08-22T08:54:04.682Z,20.47
2022-08-22T08:56:47.228Z,20.34
2022-08-22T08:59:35.789Z,20.65
2022-08-22T09:02:33.022Z,20.52
2022-08-22T09:05:29.571Z,20.78
2022-08-22T09:08:14.676Z,21.01
2022-08-22T09:11:16.946Z,21.26
2022-08-22T09:14:09.560Z,20.99
2022-08-22T09:16:51.889Z,21.29
2022-08-22T09:19:24.528Z,20.91
2022-08-22T09:22:03.062Z,21.97
2022-08-22T09:24:59.255Z,22.19
2022-08-22T09:27:37.178Z,22.59
2022-08-22T09:30:07.913Z,22.37
2022-08-22T09:32:38.083Z,22.05
2022-08-22T09:35:11.311Z,21.48
2022-08-22T09:37:50.171Z,21.57
2022-08-22T09:40:30.843Z,21.16
2022-08-22T09:43:04.868Z,21.27
2022-08-22T09:45:42.968Z,21.62
2022-08-22T09:48:19.017Z,21.97
2022-08-22T09:51:32.112Z,22.14
2022-08-22T09:54:19.096Z,22.91
2022-08-22T09:56:58.649Z,22.03
2022-08-22T09:59:27.802Z,22.25
2022-08-22T10:02:15.384Z,21.96
2022-08-22T10:04:55.270Z,22.14
2022-08-22T10:07:54.908Z,22.12
2022-08-22T10:10:43.401Z,22.13
2022-08-22T10:13:24.013Z,21.98
2022-08-22T10:16:01.778Z,22.14
2022-08-22T10:19:09.724Z,22.79
2022-08-22T10:22:13.832Z,22.69
2022-08-22T10:25:09.409Z,23.07
2022-08-22T10:27:55.358Z,23.25
2022-08-22T10:30:35.784Z,22.84
2022-08-22T10:33:05.366Z,23.90
2022-08-22T10:35:39.837Z,25.03
2022-08-22T10:38:10.740Z,25.72
2022-08-22T10:40:53.311Z,25.06
2022-08-22T10:43:28.857Z,24.80
2022-08-22T10:46:12.517Z,24.01
2022-08-22T10:49:07.998Z,24.42
2022-08-22T10:51:53.416Z,24.13
2022-08-22T10:54:29.010Z,24.30
2022-08-22T10:56:59.227Z,23.78
2022-08-22T10:59:46.332Z,23.43
2022-08-22T11:02:23.217Z,24.29
2022-08-22T11:05:02.798Z,23.93
2022-08-22T11:07:29.208Z,24.54
2022-08-22T11:10:04.864Z,24.23
2022-08-22T11:12:42.704Z,24.51
2022-08-22T11:15:28.334Z,24.51
2022-08-22T11:18:07.682Z,24.92
2022-08-22T11:21:16.902Z,24.91
2022-08-22T11:24:01.525Z,24.72
2022-08-22T11:26:46.842Z,24.42
2022-08-22T11:29:28.867Z,25.34
2022-08-22T11:32:05.849Z,25.24
2022-08-22T11:35:09.533Z,25.20
2022-08-22T11:37:56.264Z,25.44
2022-08-22T11:40:42.607Z,24.69
2022-08-22T11:43:37.228Z,25.33
2022-08-22T11:46:20.296Z,25.44
2022-08-22T11:48:55.788Z,25.44
2022-08-22T11:51:47.750Z,25.04
2022-08-22T11:54:44.467Z,24.58
2022-08-22T11:57:17.550Z,24.61
2022-08-22T12:00:32.735Z,25.55
2022-08-22T12:03:24.415Z,24.38
2022-08-22T12:06:01.156Z,25.19
2022-08-22T12:08:30.361Z,25.17
2022-08-22T12:11:09.840Z,25.56
2022-08-22T12:14:06.500Z,25.08
2022-08-22T12:17:10.627Z,25.41
2022-08-22T12:20:16.498Z,25.20
2022-08-22T12:23:17.290Z,25.11
2022-08-22T12:25:46.373Z,25.78
2022-08-22T12:28:30.054Z,25.50
2022-08-22T12:31:07.786Z,25.41
2022-08-22T12:33:50.814Z,25.56
2022-08-22T12:36:40.542Z,24.82
2022-08-22T12:39:33.129Z,25.02
2022-08-22T12:42:11.859Z,25.56
2022-08-22T12:45:17.975Z,25.31
2022-08-22T12:48:15.571Z,25.39
2022-08-22T12:50:50.199Z,24.99
2022-08-22T12:53:51.805Z,24.93
2022-08-22T12:56:29.378Z,25.71
2022-08-22T12:59:23.436Z,25.46
2022-08-22T13:01:54.615Z,25.28
2022-08-22T13:04:33.202Z,25.81
2022-08-22T13:07:22.608Z,24.79
2022-08-22T13:09:55.263Z,24.75
2022-08-22T13:12:36.289Z,24.55
2022-08-22T13:15:15.633Z,25.36
2022-08-22T13:17:45.570Z,25.36
2022-08-22T13:20:23.818Z,26.19
2022-08-22T13:22:54.423Z,27.54
2022-08-22T13:25:25.452Z,25.84
2022-08-22T13:27:56.938Z,26.60
2022-08-22T13:30:37.808Z,26.99
2022-08-22T13:33:14.528Z,25.86
2022-08-22T13:35:54.580Z,25.04
2022-08-22T13:38:26.849Z,25.82
2022-08-22T13:40:56.717Z,24.98
2022-08-22T13:43:53.826Z,26.38
2022-08-22T13:46:29.001Z,25.83
2022-08-22T13:49:01.162Z,26.13
2022-08-22T13:52:01.178Z,26.08
2022-08-22T13:54:55.859Z,26.26
2022-08-22T13:57:40.612Z,25.67
2022-08-22T14:00:30.318Z,27.61
2022-08-22T14:03:18.025Z,26.53
2022-08-22T14:05:54.900Z,26.85
2022-08-22T14:08:36.987Z,29.22
2022-08-22T14:11:12.451Z,30.01
2022-08-22T14:13:46.928Z,27.57
2022-08-22T14:16:24.572Z,27.54
2022-08-22T14:18:58.522Z,28.07
2022-08-22T14:21:40.659Z,29.14
2022-08-22T14:24:26.900Z,28.34
2022-08-22T14:27:05.708Z,28.50
2022-08-22T14:29:51.889Z,27.90
2022-08-22T14:32:22.624Z,27.51
2022-08-22T14:35:00.487Z,26.64
2022-08-22T14:37:38.964Z,25.88
2022-08-22T14:40:10.449Z,25.94
2022-08-22T14:42:52.805Z,26.19
2022-08-22T14:45:27.015Z,25.67
2022-08-22T14:48:14.495Z,25.94
2022-08-22T14:50:53.380Z,25.65
2022-08-22T14:53:25.192Z,27.48
2022-08-22T14:56:01.042Z,28.35
2022-08-22T14:58:31.359Z,26.81
2022-08-22T15:01:11.681Z,28.00
2022-08-22T15:03:40.323Z,27.58
2022-08-22T15:06:13.457Z,26.96
2022-08-22T15:08:46.397Z,26.97
2022-08-22T15:11:18.855Z,28.52
2022-08-22T15:14:01.642Z,28.52
2022-08-22T15:16:33.814Z,27.70
2022-08-22T15:19:01.443Z,27.14
2022-08-22T15:21:33.194Z,27.11
2022-08-22T15:24:12.427Z,26.88
2022-08-22T15:26:50.146Z,28.58
2022-08-22T15:29:24.609Z,27.91
2022-08-22T15:32:03.425Z,27.25
2022-08-22T15:34:39.963Z,27.03
2022-08-22T15:37:16.635Z,27.45
2022-08-22T15:40:08.380Z,26.61
2022-08-22T15:42:47.153Z,27.18
2022-08-22T15:45:36.216Z,26.92
2022-08-22T15:48:09.393Z,27.08
2022-08-22T15:50:40.627Z,26.02
2022-08-22T15:53:26.363Z,26.05
2022-08-22T15:56:11.337Z,26.60
2022-08-22T15:58:40.319Z,27.57
2022-08-22T16:01:19.652Z,27.67
2022-08-22T16:04:02.213Z,27.37
2022-08-22T16:06:52.672Z,26.71
2022-08-22T16:09:38.212Z,27.62
2022-08-22T16:12:25.072Z,25.85
2022-08-22T16:14:53.265Z,26.11
2022-08-22T16:17:28.484Z,26.04
2022-08-22T16:20:19.563Z,25.99
2022-08-22T16:22:55.612Z,25.88
2022-08-22T16:25:43.796Z,25.91
2022-08-22T16:28:56.713Z,25.64
2022-08-22T16:31:25.153Z,25.71
2022-08-22T16:33:51.760Z,25.58
2022-08-22T16:36:24.051Z,25.74
2022-08-22T16:38:54.028Z,25.34
2022-08-22T16:41:28.891Z,25.78
2022-08-22T16:44:14.951Z,26.00
2022-08-22T16:46:46.119Z,25.67
2022-08-22T16:49:25.931Z,25.69
2022-08-22T16:52:20.618Z,25.15
2022-08-22T16:55:02.469Z,24.83
2022-08-22T16:58:19.590Z,25.47
2022-08-22T17:00:51.915Z,25.54
2022-08-22T17:03:42.900Z,25.35
2022-08-22T17:06:24.729Z,25.23
2022-08-22T17:09:12.175Z,25.10
2022-08-22T17:11:38.588Z,24.86
2022-08-22T17:14:31.533Z,24.96
2022-08-22T17:17:16.429Z,24.66
2022-08-22T17:19:52.062Z,24.98
2022-08-22T17:22:32.783Z,24.66
2022-08-22T17:25:20.899Z,25.10
2022-08-22T17:28:21.152Z,24.80
2022-08-22T17:31:00.551Z,24.34
2022-08-22T17:33:55.082Z,24.37
2022-08-22T17:36:49.540Z,25.02
2022-08-22T17:40:03.717Z,24.97
2022-08-22T17:42:51.327Z,24.67
2022-08-22T17:45:33.415Z,24.46
2022-08-22T17:48:07.119Z,24.66
2022-08-22T17:50:53.939Z,24.31
2022-08-22T17:53:24.579Z,24.47
2022-08-22T17:56:03.753Z,24.33
2022-08-22T17:58:43.341Z,24.38
2022-08-22T18:01:33.039Z,24.30
2022-08-22T18:04:04.580Z,24.22
2022-08-22T18:06:36.299Z,24.51
2022-08-22T18:09:17.062Z,24.35
2022-08-22T18:11:54.399Z,24.26
2022-08-22T18:14:40.471Z,24.40
2022-08-22T18:17:32.828Z,24.35
2022-08-22T18:20:25.078Z,24.26
2022-08-22T18:23:28.428Z,24.14
2022-08-22T18:26:06.380Z,24.08
2022-08-22T18:28:35.979Z,23.86
2022-08-22T18:31:38.645Z,23.96
2022-08-22T18:34:36.682Z,23.97
2022-08-22T18:37:24.481Z,23.74
2022-08-22T18:39:57.170Z,23.68
2022-08-22T18:42:50.722Z,23.58
2022-08-22T18:45:43.690Z,23.51
2022-08-22T18:49:11.647Z,23.53
2022-08-22T18:51:34.404Z,22.92
2022-08-22T18:54:04.589Z,23.20
2022-08-22T18:56:31.061Z,23.11
2022-08-22T18:59:11.371Z,22.74
2022-08-22T19:01:59.725Z,23.19
2022-08-22T19:04:44.409Z,23.13
2022-08-22T19:07:33.880Z,23.14
2022-08-22T19:10:12.421Z,22.78
2022-08-22T19:13:06.880Z,23.05
2022-08-22T19:16:06.326Z,22.52
2022-08-22T19:18:41.652Z,22.42
2022-08-22T19:21:16.867Z,22.52
2022-08-22T19:23:47.586Z,22.27
2022-08-22T19:26:44.673Z,22.41
2022-08-22T19:29:13.973Z,22.56
2022-08-22T19:32:13.214Z,22.64
2022-08-22T19:34:47.082Z,22.36
2022-08-22T19:37:32.049Z,22.47
2022-08-22T19:40:09.804Z,22.50
2022-08-22T19:42:38.956Z,22.54
2022-08-22T19:45:17.246Z,22.28
2022-08-22T19:47:54.631Z,22.27
2022-08-22T19:50:21.008Z,22.28
2022-08-22T19:52:56.738Z,22.32
2022-08-22T19:55:38.553Z,22.36
2022-08-22T19:58:17.549Z,22.21
2022-08-22T20:01:04.248Z,22.15
2022-08-22T20:03:56.957Z,22.13
2022-08-22T20:06:45.092Z,22.04
2022-08-22T20:10:02.682Z,22.16
2022-08-22T20:12:29.107Z,21.86
2022-08-22T20:14:56.272Z,22.13
2022-08-22T20:17:25.607Z,21.95
2022-08-22T20:20:35.035Z,21.91
2022-08-22T20:23:32.352Z,21.96
2022-08-22T20:25:59.537Z,21.71
2022-08-22T20:28:47.752Z,21.75
2022-08-22T20:31:26.535Z,21.73
2022-08-22T20:34:00.420Z,21.87
2022-08-22T20:36:28.646Z,22.00
2022-08-22T20:39:05.149Z,21.77
2022-08-22T20:41:36.967Z,21.50
2022-08-22T20:44:13.780Z,21.56
2022-08-22T20:46:46.464Z,21.36
2022-08-22T20:49:25.898Z,21.26
2022-08-22T20:51:54.039Z,21.52
2022-08-22T20:54:23.057Z,21.38
2022-08-22T20:57:00.552Z,21.52
2022-08-22T20:59:32.717Z,20.84
2022-08-22T21:02:08.752Z,21.04
2022-08-22T21:05:05.915Z,20.99
2022-08-22T21:07:38.561Z,21.01
2022-08-22T21:10:22.974Z,20.96
2022-08-22T21:13:12.493Z,20.71
2022-08-22T21:15:46.107Z,20.94
2022-08-22T21:18:23.314Z,20.95
2022-08-22T21:20:49.920Z,20.88
2022-08-22T21:23:17.102Z,20.63
2022-08-22T21:26:00.155Z,20.78
2022-08-22T21:28:40.893Z,20.50
2022-08-22T21:31:14.720Z,20.67
2022-08-22T21:33:47.133Z,20.80
2022-08-22T21:36:26.283Z,20.73
2022-08-22T21:39:05.816Z,20.62
2022-08-22T21:41:41.466Z,20.77
2022-08-22T21:44:31.809Z,20.41
2022-08-22T21:47:23.295Z,20.33
2022-08-22T21:50:08.246Z,20.16
2022-08-22T21:52:37.598Z,20.17
2022-08-22T21:55:14.955Z,20.40
2022-08-22T21:57:42.033Z,20.36
2022-08-22T22:00:48.809Z,20.27
2022-08-22T22:03:19.845Z,19.94
2022-08-22T22:05:47.137Z,19.79
2022-08-22T22:08:13.621Z,20.10
2022-08-22T22:10:43.159Z,19.95
2022-08-22T22:13:10.589Z,20.03
2022-08-22T22:15:42.348Z,19.81
2022-08-22T22:18:08.784Z,19.76
2022-08-22T22:20:35.321Z,19.34
2022-08-22T22:23:01.757Z,19.50
2022-08-22T22:25:40.890Z,19.66
2022-08-22T22:28:30.426Z,19.96
2022-08-22T22:30:57.173Z,19.27
2022-08-22T22:33:27.662Z,19.38
2022-08-22T22:35:57.169Z,19.30
2022-08-22T22:38:24.448Z,19.41
2022-08-22T22:40:52.046Z,19.67
2022-08-22T22:43:18.763Z,19.57
2022-08-22T22:45:45.344Z,19.34
2022-08-22T22:48:12.061Z,18.96
2022-08-22T22:50:48.705Z,19.41
2022-08-22T22:53:19.924Z,19.71
2022-08-22T22:55:47.821Z,19.33
2022-08-22T22:58:27.480Z,19.00
2022-08-22T23:00:54.057Z,19.01
2022-08-22T23:03:20.570Z,19.15
2022-08-22T23:05:46.998Z,18.62
2022-08-22T23:08:13.503Z,18.93
2022-08-22T23:10:40.063Z,19.08
2022-08-22T23:13:06.484Z,18.87
2022-08-22T23:15:32.975Z,18.42
2022-08-22T23:17:59.609Z,18.90
2022-08-22T23:20:26.196Z,18.64
2022-08-22T23:22:52.638Z,18.77
2022-08-22T23:25:20.605Z,18.15
2022-08-22T23:27:48.714Z,18.66
2022-08-22T23:30:20.635Z,18.60
2022-08-22T23:32:47.079Z,18.92
2022-08-22T23:35:13.583Z,19.25
2022-08-22T23:37:40.148Z,18.49
2022-08-22T23:40:07.402Z,19.16
2022-08-22T23:42:34.044Z,18.38
2022-08-22T23:45:00.474Z,19.12
2022-08-22T23:47:26.944Z,19.27
2022-08-22T23:49:53.451Z,19.39
2022-08-22T23:52:19.982Z,18.58
2022-08-22T23:54:46.406Z,18.55
2022-08-22T23:57:13.539Z,19.16
2022-08-22T23:59:46.450Z,18.92
